sensor_id;sensor_type;location;lat;lon;timestamp;P1;durP1;ratioP1;P2;durP2;ratioP2
1987;SDS011;12775;46.994;15.498;2022-12-07T00:01:05;21.98;;;13.30;;
1987;SDS011;12775;46.994;15.498;2022-12-07T00:03:33;33.18;;;13.84;;
1987;SDS011;12775;46.994;15.498;2022-12-07T00:06:01;25.88;;;12.80;;
1987;SDS011;12775;46.994;15.498;2022-12-07T00:08:28;22.50;;;13.74;;
1987;SDS011;12775;46.994;15.498;2022-12-07T00:10:55;31.84;;;13.10;;
1987;SDS011;12775;46.994;15.498;2022-12-07T00:13:32;23.60;;;11.62;;
1987;SDS011;12775;46.994;15.498;2022-12-07T00:16:00;20.82;;;13.08;;
1987;SDS011;12775;46.994;15.498;2022-12-07T00:18:26;19.42;;;11.72;;
1987;SDS011;12775;46.994;15.498;2022-12-07T00:20:58;24.82;;;11.10;;
1987;SDS011;12775;46.994;15.498;2022-12-07T00:23:21;28.92;;;11.72;;
1987;SDS011;12775;46.994;15.498;2022-12-07T00:25:48;22.20;;;12.30;;
1987;SDS011;12775;46.994;15.498;2022-12-07T00:28:16;21.22;;;11.68;;
1987;SDS011;12775;46.994;15.498;2022-12-07T00:30:43;18.98;;;11.86;;
1987;SDS011;12775;46.994;15.498;2022-12-07T00:33:10;19.64;;;11.84;;
1987;SDS011;12775;46.994;15.498;2022-12-07T00:35:38;20.50;;;11.84;;
1987;SDS011;12775;46.994;15.498;2022-12-07T00:38:05;19.66;;;12.48;;
1987;SDS011;12775;46.994;15.498;2022-12-07T00:40:33;22.74;;;11.46;;
1987;SDS011;12775;46.994;15.498;2022-12-07T00:43:00;19.68;;;11.64;;
1987;SDS011;12775;46.994;15.498;2022-12-07T00:45:27;28.12;;;11.58;;
1987;SDS011;12775;46.994;15.498;2022-12-07T00:47:55;19.94;;;12.08;;
1987;SDS011;12775;46.994;15.498;2022-12-07T00:50:22;26.10;;;13.22;;
1987;SDS011;12775;46.994;15.498;2022-12-07T00:52:49;32.60;;;12.74;;
1987;SDS011;12775;46.994;15.498;2022-12-07T00:55:17;18.28;;;11.54;;
1987;SDS011;12775;46.994;15.498;2022-12-07T00:57:44;21.82;;;11.82;;
1987;SDS011;12775;46.994;15.498;2022-12-07T01:00:12;26.90;;;12.60;;
1987;SDS011;12775;46.994;15.498;2022-12-07T01:02:39;18.76;;;11.32;;
1987;SDS011;12775;46.994;15.498;2022-12-07T01:05:07;22.08;;;10.38;;
1987;SDS011;12775;46.994;15.498;2022-12-07T01:07:35;17.78;;;10.94;;
1987;SDS011;12775;46.994;15.498;2022-12-07T01:10:02;23.34;;;11.00;;
1987;SDS011;12775;46.994;15.498;2022-12-07T01:12:30;19.38;;;11.22;;
1987;SDS011;12775;46.994;15.498;2022-12-07T01:14:57;25.32;;;11.40;;
1987;SDS011;12775;46.994;15.498;2022-12-07T01:17:25;21.24;;;10.46;;
1987;SDS011;12775;46.994;15.498;2022-12-07T01:19:52;24.36;;;11.82;;
1987;SDS011;12775;46.994;15.498;2022-12-07T01:22:19;23.90;;;11.92;;
1987;SDS011;12775;46.994;15.498;2022-12-07T01:24:47;15.88;;;9.86;;
1987;SDS011;12775;46.994;15.498;2022-12-07T01:27:14;23.20;;;9.96;;
1987;SDS011;12775;46.994;15.498;2022-12-07T01:29:42;35.98;;;11.92;;
1987;SDS011;12775;46.994;15.498;2022-12-07T01:32:09;31.62;;;11.78;;
1987;SDS011;12775;46.994;15.498;2022-12-07T01:34:37;21.74;;;10.30;;
1987;SDS011;12775;46.994;15.498;2022-12-07T01:37:05;27.74;;;9.92;;
1987;SDS011;12775;46.994;15.498;2022-12-07T01:39:32;24.68;;;11.16;;
1987;SDS011;12775;46.994;15.498;2022-12-07T01:41:59;17.04;;;9.30;;
1987;SDS011;12775;46.994;15.498;2022-12-07T01:44:27;18.40;;;9.08;;
1987;SDS011;12775;46.994;15.498;2022-12-07T01:46:55;20.60;;;9.42;;
1987;SDS011;12775;46.994;15.498;2022-12-07T01:49:41;31.76;;;10.82;;
1987;SDS011;12775;46.994;15.498;2022-12-07T01:52:16;28.60;;;11.00;;
1987;SDS011;12775;46.994;15.498;2022-12-07T01:54:43;27.56;;;12.14;;
1987;SDS011;12775;46.994;15.498;2022-12-07T01:57:09;24.30;;;10.06;;
1987;SDS011;12775;46.994;15.498;2022-12-07T01:59:37;17.68;;;9.30;;
1987;SDS011;12775;46.994;15.498;2022-12-07T02:02:05;24.18;;;11.72;;
1987;SDS011;12775;46.994;15.498;2022-12-07T02:04:32;23.98;;;9.16;;
1987;SDS011;12775;46.994;15.498;2022-12-07T02:06:59;21.80;;;9.06;;
1987;SDS011;12775;46.994;15.498;2022-12-07T02:09:26;23.28;;;10.44;;
1987;SDS011;12775;46.994;15.498;2022-12-07T02:11:54;24.06;;;10.30;;
1987;SDS011;12775;46.994;15.498;2022-12-07T02:14:21;25.38;;;10.88;;
1987;SDS011;12775;46.994;15.498;2022-12-07T02:16:58;24.14;;;10.76;;
1987;SDS011;12775;46.994;15.498;2022-12-07T02:19:29;17.86;;;10.38;;
1987;SDS011;12775;46.994;15.498;2022-12-07T02:21:52;22.06;;;11.52;;
1987;SDS011;12775;46.994;15.498;2022-12-07T02:24:29;15.18;;;10.30;;
1987;SDS011;12775;46.994;15.498;2022-12-07T02:26:55;23.10;;;10.00;;
1987;SDS011;12775;46.994;15.498;2022-12-07T02:29:33;24.52;;;10.76;;
1987;SDS011;12775;46.994;15.498;2022-12-07T02:34:47;30.88;;;10.72;;
1987;SDS011;12775;46.994;15.498;2022-12-07T02:37:19;28.02;;;12.14;;
1987;SDS011;12775;46.994;15.498;2022-12-07T02:39:48;23.92;;;11.38;;
1987;SDS011;12775;46.994;15.498;2022-12-07T02:42:16;33.58;;;12.50;;
1987;SDS011;12775;46.994;15.498;2022-12-07T02:44:42;24.74;;;10.52;;
1987;SDS011;12775;46.994;15.498;2022-12-07T02:47:11;32.94;;;12.10;;
1987;SDS011;12775;46.994;15.498;2022-12-07T02:49:37;21.06;;;11.08;;
1987;SDS011;12775;46.994;15.498;2022-12-07T02:52:05;30.04;;;11.12;;
1987;SDS011;12775;46.994;15.498;2022-12-07T02:54:32;33.08;;;11.58;;
1987;SDS011;12775;46.994;15.498;2022-12-07T02:57:03;58.34;;;12.56;;
1987;SDS011;12775;46.994;15.498;2022-12-07T02:59:48;27.40;;;9.52;;
1987;SDS011;12775;46.994;15.498;2022-12-07T03:02:25;20.62;;;9.34;;
1987;SDS011;12775;46.994;15.498;2022-12-07T03:05:01;28.54;;;10.82;;
1987;SDS011;12775;46.994;15.498;2022-12-07T03:07:33;20.76;;;9.56;;
1987;SDS011;12775;46.994;15.498;2022-12-07T03:10:03;27.08;;;9.44;;
1987;SDS011;12775;46.994;15.498;2022-12-07T03:12:31;18.92;;;9.72;;
1987;SDS011;12775;46.994;15.498;2022-12-07T03:15:00;21.38;;;9.52;;
1987;SDS011;12775;46.994;15.498;2022-12-07T03:17:24;27.50;;;9.56;;
1987;SDS011;12775;46.994;15.498;2022-12-07T03:19:51;18.72;;;9.34;;
1987;SDS011;12775;46.994;15.498;2022-12-07T03:22:19;25.24;;;8.86;;
1987;SDS011;12775;46.994;15.498;2022-12-07T03:24:48;22.68;;;9.60;;
1987;SDS011;12775;46.994;15.498;2022-12-07T03:27:18;19.70;;;11.46;;
1987;SDS011;12775;46.994;15.498;2022-12-07T03:29:46;23.12;;;11.26;;
1987;SDS011;12775;46.994;15.498;2022-12-07T03:32:31;31.22;;;10.92;;
1987;SDS011;12775;46.994;15.498;2022-12-07T03:37:33;27.50;;;11.00;;
1987;SDS011;12775;46.994;15.498;2022-12-07T03:40:05;15.24;;;8.52;;
1987;SDS011;12775;46.994;15.498;2022-12-07T03:42:31;28.84;;;9.70;;
1987;SDS011;12775;46.994;15.498;2022-12-07T03:44:58;44.16;;;11.02;;
1987;SDS011;12775;46.994;15.498;2022-12-07T03:48:02;32.34;;;10.76;;
1987;SDS011;12775;46.994;15.498;2022-12-07T03:50:13;30.74;;;10.62;;
1987;SDS011;12775;46.994;15.498;2022-12-07T03:52:41;34.86;;;9.80;;
1987;SDS011;12775;46.994;15.498;2022-12-07T03:55:11;34.30;;;9.10;;
1987;SDS011;12775;46.994;15.498;2022-12-07T03:57:47;36.20;;;10.90;;
1987;SDS011;12775;46.994;15.498;2022-12-07T04:00:14;23.38;;;10.12;;
1987;SDS011;12775;46.994;15.498;2022-12-07T04:02:42;25.14;;;8.90;;
1987;SDS011;12775;46.994;15.498;2022-12-07T04:05:09;35.60;;;10.28;;
1987;SDS011;12775;46.994;15.498;2022-12-07T04:07:36;36.00;;;9.30;;
1987;SDS011;12775;46.994;15.498;2022-12-07T04:10:04;26.02;;;9.78;;
1987;SDS011;12775;46.994;15.498;2022-12-07T04:12:32;36.88;;;11.20;;
1987;SDS011;12775;46.994;15.498;2022-12-07T04:14:59;35.24;;;10.64;;
1987;SDS011;12775;46.994;15.498;2022-12-07T04:17:26;39.18;;;11.00;;
1987;SDS011;12775;46.994;15.498;2022-12-07T04:19:54;26.68;;;9.44;;
1987;SDS011;12775;46.994;15.498;2022-12-07T04:22:21;21.00;;;9.60;;
1987;SDS011;12775;46.994;15.498;2022-12-07T04:24:49;32.96;;;8.80;;
1987;SDS011;12775;46.994;15.498;2022-12-07T04:27:16;31.92;;;10.38;;
1987;SDS011;12775;46.994;15.498;2022-12-07T04:29:43;35.88;;;10.28;;
1987;SDS011;12775;46.994;15.498;2022-12-07T04:32:11;28.64;;;11.88;;
1987;SDS011;12775;46.994;15.498;2022-12-07T04:34:38;33.84;;;10.34;;
1987;SDS011;12775;46.994;15.498;2022-12-07T04:37:05;38.62;;;10.04;;
1987;SDS011;12775;46.994;15.498;2022-12-07T04:39:33;34.48;;;8.92;;
1987;SDS011;12775;46.994;15.498;2022-12-07T04:42:00;17.52;;;8.62;;
1987;SDS011;12775;46.994;15.498;2022-12-07T04:44:28;24.78;;;8.84;;
1987;SDS011;12775;46.994;15.498;2022-12-07T04:46:55;21.56;;;8.70;;
1987;SDS011;12775;46.994;15.498;2022-12-07T04:49:23;28.24;;;10.08;;
1987;SDS011;12775;46.994;15.498;2022-12-07T04:51:50;20.56;;;9.44;;
1987;SDS011;12775;46.994;15.498;2022-12-07T04:54:17;30.78;;;9.48;;
1987;SDS011;12775;46.994;15.498;2022-12-07T04:56:45;23.06;;;10.06;;
1987;SDS011;12775;46.994;15.498;2022-12-07T04:59:13;33.78;;;9.84;;
1987;SDS011;12775;46.994;15.498;2022-12-07T05:01:40;19.70;;;8.64;;
1987;SDS011;12775;46.994;15.498;2022-12-07T05:04:07;24.24;;;10.44;;
1987;SDS011;12775;46.994;15.498;2022-12-07T05:06:34;20.10;;;8.00;;
1987;SDS011;12775;46.994;15.498;2022-12-07T05:09:02;29.44;;;8.76;;
1987;SDS011;12775;46.994;15.498;2022-12-07T05:11:29;23.04;;;8.66;;
1987;SDS011;12775;46.994;15.498;2022-12-07T05:14:03;16.46;;;8.38;;
1987;SDS011;12775;46.994;15.498;2022-12-07T05:16:30;19.20;;;8.70;;
1987;SDS011;12775;46.994;15.498;2022-12-07T05:18:57;28.78;;;9.12;;
1987;SDS011;12775;46.994;15.498;2022-12-07T05:21:24;18.80;;;8.70;;
1987;SDS011;12775;46.994;15.498;2022-12-07T05:23:52;13.48;;;8.34;;
1987;SDS011;12775;46.994;15.498;2022-12-07T05:26:19;21.20;;;7.74;;
1987;SDS011;12775;46.994;15.498;2022-12-07T05:28:49;22.48;;;9.28;;
1987;SDS011;12775;46.994;15.498;2022-12-07T05:31:16;24.40;;;8.42;;
1987;SDS011;12775;46.994;15.498;2022-12-07T05:33:44;19.24;;;9.98;;
1987;SDS011;12775;46.994;15.498;2022-12-07T05:36:11;19.20;;;9.34;;
1987;SDS011;12775;46.994;15.498;2022-12-07T05:38:39;21.90;;;10.02;;
1987;SDS011;12775;46.994;15.498;2022-12-07T05:41:06;34.38;;;11.36;;
1987;SDS011;12775;46.994;15.498;2022-12-07T05:43:33;29.78;;;10.42;;
1987;SDS011;12775;46.994;15.498;2022-12-07T05:46:01;21.46;;;9.52;;
1987;SDS011;12775;46.994;15.498;2022-12-07T05:48:28;18.72;;;8.98;;
1987;SDS011;12775;46.994;15.498;2022-12-07T05:50:56;23.62;;;9.66;;
1987;SDS011;12775;46.994;15.498;2022-12-07T05:53:23;24.68;;;8.68;;
1987;SDS011;12775;46.994;15.498;2022-12-07T05:55:51;21.98;;;9.84;;
1987;SDS011;12775;46.994;15.498;2022-12-07T05:58:18;14.08;;;8.80;;
1987;SDS011;12775;46.994;15.498;2022-12-07T06:00:50;17.20;;;9.36;;
1987;SDS011;12775;46.994;15.498;2022-12-07T06:03:18;13.98;;;8.30;;
1987;SDS011;12775;46.994;15.498;2022-12-07T06:05:45;20.06;;;8.98;;
1987;SDS011;12775;46.994;15.498;2022-12-07T06:08:12;21.18;;;9.44;;
1987;SDS011;12775;46.994;15.498;2022-12-07T06:10:40;28.80;;;8.14;;
1987;SDS011;12775;46.994;15.498;2022-12-07T06:13:08;16.50;;;9.06;;
1987;SDS011;12775;46.994;15.498;2022-12-07T06:15:36;16.06;;;8.18;;
1987;SDS011;12775;46.994;15.498;2022-12-07T06:18:02;13.82;;;8.10;;
1987;SDS011;12775;46.994;15.498;2022-12-07T06:20:29;12.30;;;8.72;;
1987;SDS011;12775;46.994;15.498;2022-12-07T06:22:57;11.20;;;7.94;;
1987;SDS011;12775;46.994;15.498;2022-12-07T06:25:24;16.40;;;8.74;;
1987;SDS011;12775;46.994;15.498;2022-12-07T06:27:51;19.24;;;9.42;;
1987;SDS011;12775;46.994;15.498;2022-12-07T06:30:19;25.20;;;8.98;;
1987;SDS011;12775;46.994;15.498;2022-12-07T06:32:46;27.34;;;9.32;;
1987;SDS011;12775;46.994;15.498;2022-12-07T06:35:13;22.86;;;9.98;;
1987;SDS011;12775;46.994;15.498;2022-12-07T06:37:41;19.28;;;9.64;;
1987;SDS011;12775;46.994;15.498;2022-12-07T06:40:09;26.50;;;9.60;;
1987;SDS011;12775;46.994;15.498;2022-12-07T06:42:35;28.64;;;8.34;;
1987;SDS011;12775;46.994;15.498;2022-12-07T06:45:03;16.32;;;8.96;;
1987;SDS011;12775;46.994;15.498;2022-12-07T06:47:31;18.88;;;8.52;;
1987;SDS011;12775;46.994;15.498;2022-12-07T06:49:58;13.80;;;9.70;;
1987;SDS011;12775;46.994;15.498;2022-12-07T06:52:25;19.88;;;9.98;;
1987;SDS011;12775;46.994;15.498;2022-12-07T06:54:53;19.94;;;8.76;;
1987;SDS011;12775;46.994;15.498;2022-12-07T06:57:20;15.16;;;9.70;;
1987;SDS011;12775;46.994;15.498;2022-12-07T06:59:47;21.94;;;8.74;;
1987;SDS011;12775;46.994;15.498;2022-12-07T07:02:15;21.76;;;8.68;;
1987;SDS011;12775;46.994;15.498;2022-12-07T07:04:42;13.30;;;7.36;;
1987;SDS011;12775;46.994;15.498;2022-12-07T07:07:09;21.94;;;8.96;;
1987;SDS011;12775;46.994;15.498;2022-12-07T07:09:37;26.38;;;8.74;;
1987;SDS011;12775;46.994;15.498;2022-12-07T07:12:04;21.12;;;9.20;;
1987;SDS011;12775;46.994;15.498;2022-12-07T07:14:31;12.04;;;7.96;;
1987;SDS011;12775;46.994;15.498;2022-12-07T07:16:59;20.82;;;7.94;;
1987;SDS011;12775;46.994;15.498;2022-12-07T07:19:27;20.30;;;9.80;;
1987;SDS011;12775;46.994;15.498;2022-12-07T07:21:54;15.10;;;8.88;;
1987;SDS011;12775;46.994;15.498;2022-12-07T07:24:22;19.88;;;9.00;;
1987;SDS011;12775;46.994;15.498;2022-12-07T07:26:49;12.72;;;9.20;;
1987;SDS011;12775;46.994;15.498;2022-12-07T07:29:17;17.32;;;9.58;;
1987;SDS011;12775;46.994;15.498;2022-12-07T07:31:44;13.96;;;7.96;;
1987;SDS011;12775;46.994;15.498;2022-12-07T07:34:11;14.08;;;9.14;;
1987;SDS011;12775;46.994;15.498;2022-12-07T07:36:39;11.96;;;8.68;;
1987;SDS011;12775;46.994;15.498;2022-12-07T07:39:06;19.64;;;10.40;;
1987;SDS011;12775;46.994;15.498;2022-12-07T07:41:34;23.78;;;11.00;;
1987;SDS011;12775;46.994;15.498;2022-12-07T07:44:01;20.22;;;9.38;;
1987;SDS011;12775;46.994;15.498;2022-12-07T07:46:28;14.72;;;9.14;;
1987;SDS011;12775;46.994;15.498;2022-12-07T07:48:56;19.38;;;12.62;;
1987;SDS011;12775;46.994;15.498;2022-12-07T07:51:23;16.14;;;9.60;;
1987;SDS011;12775;46.994;15.498;2022-12-07T07:53:50;16.86;;;10.24;;
1987;SDS011;12775;46.994;15.498;2022-12-07T07:56:18;11.46;;;9.50;;
1987;SDS011;12775;46.994;15.498;2022-12-07T07:58:45;17.34;;;10.18;;
1987;SDS011;12775;46.994;15.498;2022-12-07T08:01:12;14.92;;;9.78;;
1987;SDS011;12775;46.994;15.498;2022-12-07T08:03:40;16.08;;;9.28;;
1987;SDS011;12775;46.994;15.498;2022-12-07T08:06:08;21.46;;;10.32;;
1987;SDS011;12775;46.994;15.498;2022-12-07T08:08:36;23.42;;;20.58;;
1987;SDS011;12775;46.994;15.498;2022-12-07T08:11:05;18.32;;;10.80;;
1987;SDS011;12775;46.994;15.498;2022-12-07T08:13:33;15.14;;;10.92;;
1987;SDS011;12775;46.994;15.498;2022-12-07T08:16:04;14.64;;;10.36;;
1987;SDS011;12775;46.994;15.498;2022-12-07T08:18:30;18.76;;;9.38;;
1987;SDS011;12775;46.994;15.498;2022-12-07T08:20:59;15.18;;;9.66;;
1987;SDS011;12775;46.994;15.498;2022-12-07T08:23:26;15.70;;;10.02;;
1987;SDS011;12775;46.994;15.498;2022-12-07T08:25:53;23.92;;;10.80;;
1987;SDS011;12775;46.994;15.498;2022-12-07T08:28:21;16.48;;;10.32;;
1987;SDS011;12775;46.994;15.498;2022-12-07T08:30:48;14.26;;;9.18;;
1987;SDS011;12775;46.994;15.498;2022-12-07T08:33:15;21.40;;;11.82;;
1987;SDS011;12775;46.994;15.498;2022-12-07T08:35:43;12.92;;;9.12;;
1987;SDS011;12775;46.994;15.498;2022-12-07T08:38:10;13.50;;;9.30;;
1987;SDS011;12775;46.994;15.498;2022-12-07T08:40:38;20.38;;;12.46;;
1987;SDS011;12775;46.994;15.498;2022-12-07T08:43:05;15.16;;;10.66;;
1987;SDS011;12775;46.994;15.498;2022-12-07T08:45:32;20.68;;;12.18;;
1987;SDS011;12775;46.994;15.498;2022-12-07T08:48:01;19.06;;;11.92;;
1987;SDS011;12775;46.994;15.498;2022-12-07T08:50:31;17.56;;;12.20;;
1987;SDS011;12775;46.994;15.498;2022-12-07T08:52:57;17.64;;;12.08;;
1987;SDS011;12775;46.994;15.498;2022-12-07T08:55:25;14.42;;;11.42;;
1987;SDS011;12775;46.994;15.498;2022-12-07T08:57:52;17.36;;;11.62;;
1987;SDS011;12775;46.994;15.498;2022-12-07T09:00:19;18.74;;;13.14;;
1987;SDS011;12775;46.994;15.498;2022-12-07T09:02:47;16.70;;;12.22;;
1987;SDS011;12775;46.994;15.498;2022-12-07T09:05:14;18.28;;;12.74;;
1987;SDS011;12775;46.994;15.498;2022-12-07T09:07:43;26.84;;;14.16;;
1987;SDS011;12775;46.994;15.498;2022-12-07T09:10:09;24.26;;;13.80;;
1987;SDS011;12775;46.994;15.498;2022-12-07T09:12:37;19.30;;;14.04;;
1987;SDS011;12775;46.994;15.498;2022-12-07T09:15:05;18.80;;;15.78;;
1987;SDS011;12775;46.994;15.498;2022-12-07T09:17:33;20.66;;;13.00;;
1987;SDS011;12775;46.994;15.498;2022-12-07T09:20:00;20.34;;;13.96;;
1987;SDS011;12775;46.994;15.498;2022-12-07T09:22:29;15.76;;;10.30;;
1987;SDS011;12775;46.994;15.498;2022-12-07T09:24:57;19.52;;;14.02;;
1987;SDS011;12775;46.994;15.498;2022-12-07T09:27:24;19.60;;;12.90;;
1987;SDS011;12775;46.994;15.498;2022-12-07T09:29:51;19.42;;;13.20;;
1987;SDS011;12775;46.994;15.498;2022-12-07T09:32:19;22.52;;;13.42;;
1987;SDS011;12775;46.994;15.498;2022-12-07T09:34:46;20.30;;;14.04;;
1987;SDS011;12775;46.994;15.498;2022-12-07T09:37:13;20.06;;;15.50;;
1987;SDS011;12775;46.994;15.498;2022-12-07T09:39:41;20.22;;;14.62;;
1987;SDS011;12775;46.994;15.498;2022-12-07T09:42:08;18.36;;;13.88;;
1987;SDS011;12775;46.994;15.498;2022-12-07T09:44:36;19.60;;;15.34;;
1987;SDS011;12775;46.994;15.498;2022-12-07T09:47:03;17.26;;;13.54;;
1987;SDS011;12775;46.994;15.498;2022-12-07T09:49:31;22.14;;;15.52;;
1987;SDS011;12775;46.994;15.498;2022-12-07T09:52:01;23.30;;;16.58;;
1987;SDS011;12775;46.994;15.498;2022-12-07T09:54:31;26.46;;;16.78;;
1987;SDS011;12775;46.994;15.498;2022-12-07T09:56:59;18.66;;;15.38;;
1987;SDS011;12775;46.994;15.498;2022-12-07T09:59:26;24.18;;;14.98;;
1987;SDS011;12775;46.994;15.498;2022-12-07T10:01:54;23.80;;;17.10;;
1987;SDS011;12775;46.994;15.498;2022-12-07T10:04:22;25.46;;;15.78;;
1987;SDS011;12775;46.994;15.498;2022-12-07T10:06:49;19.66;;;15.68;;
1987;SDS011;12775;46.994;15.498;2022-12-07T10:09:18;17.64;;;13.54;;
1987;SDS011;12775;46.994;15.498;2022-12-07T10:14:23;19.30;;;13.60;;
1987;SDS011;12775;46.994;15.498;2022-12-07T10:16:51;18.96;;;14.90;;
1987;SDS011;12775;46.994;15.498;2022-12-07T10:19:20;22.20;;;15.16;;
1987;SDS011;12775;46.994;15.498;2022-12-07T10:22:05;21.56;;;16.30;;
1987;SDS011;12775;46.994;15.498;2022-12-07T10:24:30;16.96;;;13.24;;
1987;SDS011;12775;46.994;15.498;2022-12-07T10:26:57;20.30;;;14.72;;
1987;SDS011;12775;46.994;15.498;2022-12-07T10:29:28;20.56;;;14.06;;
1987;SDS011;12775;46.994;15.498;2022-12-07T10:31:58;19.10;;;13.72;;
1987;SDS011;12775;46.994;15.498;2022-12-07T10:34:26;21.76;;;14.80;;
1987;SDS011;12775;46.994;15.498;2022-12-07T10:39:49;22.84;;;15.48;;
1987;SDS011;12775;46.994;15.498;2022-12-07T10:42:22;20.66;;;13.82;;
1987;SDS011;12775;46.994;15.498;2022-12-07T10:44:50;18.90;;;12.88;;
1987;SDS011;12775;46.994;15.498;2022-12-07T10:47:29;21.06;;;14.50;;
1987;SDS011;12775;46.994;15.498;2022-12-07T10:53:04;20.30;;;14.28;;
1987;SDS011;12775;46.994;15.498;2022-12-07T10:55:41;21.26;;;13.26;;
1987;SDS011;12775;46.994;15.498;2022-12-07T10:58:24;19.46;;;13.32;;
1987;SDS011;12775;46.994;15.498;2022-12-07T11:00:53;18.00;;;13.88;;
1987;SDS011;12775;46.994;15.498;2022-12-07T11:03:36;22.06;;;14.98;;
1987;SDS011;12775;46.994;15.498;2022-12-07T11:08:52;19.88;;;14.30;;
1987;SDS011;12775;46.994;15.498;2022-12-07T11:11:23;19.82;;;13.50;;
1987;SDS011;12775;46.994;15.498;2022-12-07T11:14:10;17.14;;;13.14;;
1987;SDS011;12775;46.994;15.498;2022-12-07T11:16:43;20.16;;;15.02;;
1987;SDS011;12775;46.994;15.498;2022-12-07T11:21:53;20.88;;;13.94;;
1987;SDS011;12775;46.994;15.498;2022-12-07T11:24:21;18.88;;;15.34;;
1987;SDS011;12775;46.994;15.498;2022-12-07T11:26:51;22.46;;;13.56;;
1987;SDS011;12775;46.994;15.498;2022-12-07T11:29:36;18.88;;;14.30;;
1987;SDS011;12775;46.994;15.498;2022-12-07T11:32:11;23.36;;;14.90;;
1987;SDS011;12775;46.994;15.498;2022-12-07T11:37:15;20.04;;;13.86;;
1987;SDS011;12775;46.994;15.498;2022-12-07T11:39:44;20.34;;;16.86;;
1987;SDS011;12775;46.994;15.498;2022-12-07T11:42:16;18.64;;;14.48;;
1987;SDS011;12775;46.994;15.498;2022-12-07T11:44:50;18.72;;;15.34;;
1987;SDS011;12775;46.994;15.498;2022-12-07T11:47:30;18.38;;;14.40;;
1987;SDS011;12775;46.994;15.498;2022-12-07T11:50:01;23.78;;;15.88;;
1987;SDS011;12775;46.994;15.498;2022-12-07T11:52:27;26.60;;;16.66;;
1987;SDS011;12775;46.994;15.498;2022-12-07T11:55:02;20.42;;;15.76;;
1987;SDS011;12775;46.994;15.498;2022-12-07T11:57:35;20.12;;;14.82;;
1987;SDS011;12775;46.994;15.498;2022-12-07T12:00:04;19.48;;;14.70;;
1987;SDS011;12775;46.994;15.498;2022-12-07T12:02:36;17.28;;;13.90;;
1987;SDS011;12775;46.994;15.498;2022-12-07T12:05:05;21.90;;;15.50;;
1987;SDS011;12775;46.994;15.498;2022-12-07T12:07:35;17.86;;;14.96;;
1987;SDS011;12775;46.994;15.498;2022-12-07T12:10:05;17.46;;;14.64;;
1987;SDS011;12775;46.994;15.498;2022-12-07T12:12:39;17.04;;;14.08;;
1987;SDS011;12775;46.994;15.498;2022-12-07T12:15:16;19.28;;;14.70;;
1987;SDS011;12775;46.994;15.498;2022-12-07T12:20:30;23.06;;;15.12;;
1987;SDS011;12775;46.994;15.498;2022-12-07T12:23:00;20.08;;;16.46;;
1987;SDS011;12775;46.994;15.498;2022-12-07T12:25:27;18.42;;;14.54;;
1987;SDS011;12775;46.994;15.498;2022-12-07T12:27:55;21.28;;;15.32;;
1987;SDS011;12775;46.994;15.498;2022-12-07T12:30:32;22.22;;;15.54;;
1987;SDS011;12775;46.994;15.498;2022-12-07T12:33:02;22.14;;;16.78;;
1987;SDS011;12775;46.994;15.498;2022-12-07T12:35:30;20.08;;;14.14;;
1987;SDS011;12775;46.994;15.498;2022-12-07T12:38:23;18.62;;;15.52;;
1987;SDS011;12775;46.994;15.498;2022-12-07T12:43:26;21.24;;;16.20;;
1987;SDS011;12775;46.994;15.498;2022-12-07T12:45:32;18.48;;;14.80;;
1987;SDS011;12775;46.994;15.498;2022-12-07T12:48:03;16.32;;;12.92;;
1987;SDS011;12775;46.994;15.498;2022-12-07T12:50:32;16.20;;;13.84;;
1987;SDS011;12775;46.994;15.498;2022-12-07T12:53:31;17.58;;;13.90;;
1987;SDS011;12775;46.994;15.498;2022-12-07T12:56:10;20.34;;;14.78;;
1987;SDS011;12775;46.994;15.498;2022-12-07T12:58:40;22.08;;;14.94;;
1987;SDS011;12775;46.994;15.498;2022-12-07T13:03:52;18.56;;;13.76;;
1987;SDS011;12775;46.994;15.498;2022-12-07T13:06:27;16.34;;;13.86;;
1987;SDS011;12775;46.994;15.498;2022-12-07T13:09:02;19.28;;;15.02;;
1987;SDS011;12775;46.994;15.498;2022-12-07T13:11:33;23.58;;;16.30;;
1987;SDS011;12775;46.994;15.498;2022-12-07T13:16:41;18.08;;;15.12;;
1987;SDS011;12775;46.994;15.498;2022-12-07T13:24:47;15.74;;;13.88;;
1987;SDS011;12775;46.994;15.498;2022-12-07T13:27:15;15.56;;;13.34;;
1987;SDS011;12775;46.994;15.498;2022-12-07T13:29:42;20.02;;;13.48;;
1987;SDS011;12775;46.994;15.498;2022-12-07T13:32:17;14.68;;;12.82;;
1987;SDS011;12775;46.994;15.498;2022-12-07T13:34:37;16.66;;;14.46;;
1987;SDS011;12775;46.994;15.498;2022-12-07T13:37:11;20.00;;;14.32;;
1987;SDS011;12775;46.994;15.498;2022-12-07T13:42:25;15.12;;;13.50;;
1987;SDS011;12775;46.994;15.498;2022-12-07T13:44:42;15.22;;;13.74;;
1987;SDS011;12775;46.994;15.498;2022-12-07T13:47:16;14.12;;;12.38;;
1987;SDS011;12775;46.994;15.498;2022-12-07T13:49:58;15.88;;;12.42;;
1987;SDS011;12775;46.994;15.498;2022-12-07T13:52:27;17.78;;;13.06;;
1987;SDS011;12775;46.994;15.498;2022-12-07T13:54:55;16.36;;;14.66;;
1987;SDS011;12775;46.994;15.498;2022-12-07T13:57:26;17.42;;;14.90;;
1987;SDS011;12775;46.994;15.498;2022-12-07T13:59:53;13.98;;;12.28;;
1987;SDS011;12775;46.994;15.498;2022-12-07T14:02:22;16.52;;;13.56;;
1987;SDS011;12775;46.994;15.498;2022-12-07T14:04:50;19.16;;;12.76;;
1987;SDS011;12775;46.994;15.498;2022-12-07T14:07:19;18.46;;;13.20;;
1987;SDS011;12775;46.994;15.498;2022-12-07T14:10:00;14.48;;;12.26;;
1987;SDS011;12775;46.994;15.498;2022-12-07T14:12:26;14.66;;;12.40;;
1987;SDS011;12775;46.994;15.498;2022-12-07T14:14:53;15.96;;;12.16;;
1987;SDS011;12775;46.994;15.498;2022-12-07T14:17:22;15.70;;;12.70;;
1987;SDS011;12775;46.994;15.498;2022-12-07T14:19:49;14.82;;;13.12;;
1987;SDS011;12775;46.994;15.498;2022-12-07T14:22:19;15.96;;;12.44;;
1987;SDS011;12775;46.994;15.498;2022-12-07T14:25:00;17.94;;;13.38;;
1987;SDS011;12775;46.994;15.498;2022-12-07T14:27:31;15.44;;;13.46;;
1987;SDS011;12775;46.994;15.498;2022-12-07T14:29:58;14.78;;;11.52;;
1987;SDS011;12775;46.994;15.498;2022-12-07T14:32:26;18.64;;;13.12;;
1987;SDS011;12775;46.994;15.498;2022-12-07T14:34:59;17.54;;;12.66;;
1987;SDS011;12775;46.994;15.498;2022-12-07T14:37:27;15.96;;;12.94;;
1987;SDS011;12775;46.994;15.498;2022-12-07T14:39:54;12.08;;;10.76;;
1987;SDS011;12775;46.994;15.498;2022-12-07T14:42:22;18.40;;;14.10;;
1987;SDS011;12775;46.994;15.498;2022-12-07T14:44:49;15.84;;;13.32;;
1987;SDS011;12775;46.994;15.498;2022-12-07T14:47:16;16.48;;;12.16;;
1987;SDS011;12775;46.994;15.498;2022-12-07T14:49:44;16.68;;;13.36;;
1987;SDS011;12775;46.994;15.498;2022-12-07T14:52:15;16.68;;;12.90;;
1987;SDS011;12775;46.994;15.498;2022-12-07T14:54:42;15.88;;;14.22;;
1987;SDS011;12775;46.994;15.498;2022-12-07T14:57:10;16.14;;;13.58;;
1987;SDS011;12775;46.994;15.498;2022-12-07T14:59:37;19.70;;;14.54;;
1987;SDS011;12775;46.994;15.498;2022-12-07T15:02:05;19.84;;;14.00;;
1987;SDS011;12775;46.994;15.498;2022-12-07T15:04:32;17.06;;;15.26;;
1987;SDS011;12775;46.994;15.498;2022-12-07T15:07:00;18.00;;;16.00;;
1987;SDS011;12775;46.994;15.498;2022-12-07T15:09:27;19.12;;;14.76;;
1987;SDS011;12775;46.994;15.498;2022-12-07T15:11:54;26.78;;;18.90;;
1987;SDS011;12775;46.994;15.498;2022-12-07T15:14:21;32.14;;;23.76;;
1987;SDS011;12775;46.994;15.498;2022-12-07T15:16:49;34.12;;;23.44;;